Wahatoya, Colorado
Current Conditions -  °F | °C
As of 6:54 AM on Tuesday 27 Jan 2015 (Local Time) from KTAD Reporting Station
Clear Clear  
Wind Chill: 28°   Ceiling: Unl
Heat Index: 35°   Visibility: 10mi
Dew Point: 22°   Wind: 9mph
Humidity: 59%   Direction: 270°W
Pressure: 30.25"   Gusts: NA
Location:  37.5011°N, 105.046°W
Report Text: KTAD 271354Z AUTO 27008KT 10SM CLR 02/M06 A3025 RMK AO2 SLP234 T00171056
Loading
Personal Weather Stations






























Interactive Weather Map New forecast layout! Learn more

10-Day Weather Forecast

Advertisements
Track Severe Weather on mobile